Terminal Aerodrome Forecast
Issued by NWS Melbourne, FL

Home | Current Version | Previous Version | Text Only | Print | Product List | Glossary On
Versions: 1 2 3 4 5 6 7 8 9 10 11 12 13 14 15 16 17 18 19 20
000
FTUS42 KMLB 261727
TAFVRB
TAF
KVRB 261727Z 2618/2718 27008KT P6SM FEW040 SCT250
     FM262000 18009KT P6SM SCT045 SCT250
     FM270100 23005KT P6SM SCT250
     FM271400 24006KT P6SM SCT025=

USA.gov is the U.S. government's official web portal to all federal, state and local government web resources and services.